sensor_id;sensor_type;location;lat;lon;timestamp;temperature;humidity
7494;DHT22;3788;49.902;8.590;2023-02-28T00:01:14;0.50;78.70
7494;DHT22;3788;49.902;8.590;2023-02-28T00:03:43;0.50;79.00
7494;DHT22;3788;49.902;8.590;2023-02-28T00:06:10;0.50;79.30
7494;DHT22;3788;49.902;8.590;2023-02-28T00:08:37;0.50;79.80
7494;DHT22;3788;49.902;8.590;2023-02-28T00:11:06;0.40;79.50
7494;DHT22;3788;49.902;8.590;2023-02-28T00:13:35;0.40;79.60
7494;DHT22;3788;49.902;8.590;2023-02-28T00:16:04;0.40;80.10
7494;DHT22;3788;49.902;8.590;2023-02-28T00:18:33;0.40;80.20
7494;DHT22;3788;49.902;8.590;2023-02-28T00:20:59;0.30;80.40
7494;DHT22;3788;49.902;8.590;2023-02-28T00:23:27;0.30;80.70
7494;DHT22;3788;49.902;8.590;2023-02-28T00:25:54;0.30;80.80
7494;DHT22;3788;49.902;8.590;2023-02-28T00:28:21;0.30;81.00
7494;DHT22;3788;49.902;8.590;2023-02-28T00:30:48;0.30;81.40
7494;DHT22;3788;49.902;8.590;2023-02-28T00:33:14;0.30;81.60
7494;DHT22;3788;49.902;8.590;2023-02-28T00:35:43;0.30;81.60
7494;DHT22;3788;49.902;8.590;2023-02-28T00:38:11;0.30;81.80
7494;DHT22;3788;49.902;8.590;2023-02-28T00:40:38;0.20;82.40
7494;DHT22;3788;49.902;8.590;2023-02-28T00:43:05;0.20;81.80
7494;DHT22;3788;49.902;8.590;2023-02-28T00:45:31;0.20;82.00
7494;DHT22;3788;49.902;8.590;2023-02-28T00:47:58;0.20;82.10
7494;DHT22;3788;49.902;8.590;2023-02-28T00:50:25;0.20;82.20
7494;DHT22;3788;49.902;8.590;2023-02-28T00:52:53;0.20;82.40
7494;DHT22;3788;49.902;8.590;2023-02-28T00:55:20;0.20;82.60
7494;DHT22;3788;49.902;8.590;2023-02-28T00:57:46;0.10;82.60
7494;DHT22;3788;49.902;8.590;2023-02-28T01:00:14;0.10;82.80
7494;DHT22;3788;49.902;8.590;2023-02-28T01:02:41;0.10;83.00
7494;DHT22;3788;49.902;8.590;2023-02-28T01:05:08;0.10;83.20
7494;DHT22;3788;49.902;8.590;2023-02-28T01:07:35;0.10;83.30
7494;DHT22;3788;49.902;8.590;2023-02-28T01:10:03;0.10;83.60
7494;DHT22;3788;49.902;8.590;2023-02-28T01:12:30;0.10;83.70
7494;DHT22;3788;49.902;8.590;2023-02-28T01:14:57;0.10;83.80
7494;DHT22;3788;49.902;8.590;2023-02-28T01:17:24;0.10;84.00
7494;DHT22;3788;49.902;8.590;2023-02-28T01:19:53;0.10;84.00
7494;DHT22;3788;49.902;8.590;2023-02-28T01:22:20;0.10;84.20
7494;DHT22;3788;49.902;8.590;2023-02-28T01:24:46;0.10;84.30
7494;DHT22;3788;49.902;8.590;2023-02-28T01:27:14;0.10;84.40
7494;DHT22;3788;49.902;8.590;2023-02-28T01:29:41;0.10;84.60
7494;DHT22;3788;49.902;8.590;2023-02-28T01:32:08;0.10;84.90
7494;DHT22;3788;49.902;8.590;2023-02-28T01:34:35;0.10;85.20
7494;DHT22;3788;49.902;8.590;2023-02-28T01:37:01;0.10;85.20
7494;DHT22;3788;49.902;8.590;2023-02-28T01:39:28;0.10;85.60
7494;DHT22;3788;49.902;8.590;2023-02-28T01:41:55;0.10;85.70
7494;DHT22;3788;49.902;8.590;2023-02-28T01:47:39;0.00;86.30
7494;DHT22;3788;49.902;8.590;2023-02-28T01:50:11;0.00;86.70
7494;DHT22;3788;49.902;8.590;2023-02-28T01:52:40;0.00;86.80
7494;DHT22;3788;49.902;8.590;2023-02-28T01:55:08;0.00;87.00
7494;DHT22;3788;49.902;8.590;2023-02-28T01:57:40;0.00;87.10
7494;DHT22;3788;49.902;8.590;2023-02-28T02:00:12;0.00;87.30
7494;DHT22;3788;49.902;8.590;2023-02-28T02:02:44;0.00;87.60
7494;DHT22;3788;49.902;8.590;2023-02-28T02:05:15;0.00;87.70
7494;DHT22;3788;49.902;8.590;2023-02-28T02:07:44;0.00;87.80
7494;DHT22;3788;49.902;8.590;2023-02-28T02:10:13;0.00;88.10
7494;DHT22;3788;49.902;8.590;2023-02-28T02:12:56;0.00;88.30
7494;DHT22;3788;49.902;8.590;2023-02-28T02:15:32;0.00;88.50
7494;DHT22;3788;49.902;8.590;2023-02-28T02:18:07;-0.10;88.80
7494;DHT22;3788;49.902;8.590;2023-02-28T02:21:04;-0.10;88.90
7494;DHT22;3788;49.902;8.590;2023-02-28T02:24:06;-0.10;89.10
7494;DHT22;3788;49.902;8.590;2023-02-28T02:26:47;-0.10;89.30
7494;DHT22;3788;49.902;8.590;2023-02-28T02:29:59;-0.10;89.70
7494;DHT22;3788;49.902;8.590;2023-02-28T02:32:55;-0.10;90.00
7494;DHT22;3788;49.902;8.590;2023-02-28T02:35:27;-0.10;90.00
7494;DHT22;3788;49.902;8.590;2023-02-28T02:38:02;-0.10;90.20
7494;DHT22;3788;49.902;8.590;2023-02-28T02:40:38;-0.20;90.40
7494;DHT22;3788;49.902;8.590;2023-02-28T02:43:15;-0.20;90.50
7494;DHT22;3788;49.902;8.590;2023-02-28T02:45:46;-0.20;90.70
7494;DHT22;3788;49.902;8.590;2023-02-28T02:48:17;-0.20;90.80
7494;DHT22;3788;49.902;8.590;2023-02-28T02:50:51;-0.20;90.80
7494;DHT22;3788;49.902;8.590;2023-02-28T02:53:24;-0.20;91.30
7494;DHT22;3788;49.902;8.590;2023-02-28T02:55:54;-0.20;91.00
7494;DHT22;3788;49.902;8.590;2023-02-28T02:58:24;-0.20;91.10
7494;DHT22;3788;49.902;8.590;2023-02-28T03:00:54;-0.20;91.30
7494;DHT22;3788;49.902;8.590;2023-02-28T03:03:23;-0.20;91.40
7494;DHT22;3788;49.902;8.590;2023-02-28T03:05:58;-0.20;91.40
7494;DHT22;3788;49.902;8.590;2023-02-28T03:08:25;-0.20;91.50
7494;DHT22;3788;49.902;8.590;2023-02-28T03:10:55;-0.30;91.50
7494;DHT22;3788;49.902;8.590;2023-02-28T03:13:42;-0.30;91.60
7494;DHT22;3788;49.902;8.590;2023-02-28T03:16:32;-0.30;91.70
7494;DHT22;3788;49.902;8.590;2023-02-28T03:19:08;-0.30;91.80
7494;DHT22;3788;49.902;8.590;2023-02-28T03:21:45;-0.30;91.90
7494;DHT22;3788;49.902;8.590;2023-02-28T03:24:19;-0.30;92.00
7494;DHT22;3788;49.902;8.590;2023-02-28T03:26:53;-0.30;92.10
7494;DHT22;3788;49.902;8.590;2023-02-28T03:29:25;-0.30;92.10
7494;DHT22;3788;49.902;8.590;2023-02-28T03:31:59;-0.40;92.20
7494;DHT22;3788;49.902;8.590;2023-02-28T03:34:31;-0.40;92.20
7494;DHT22;3788;49.902;8.590;2023-02-28T03:37:03;-0.40;92.30
7494;DHT22;3788;49.902;8.590;2023-02-28T03:39:35;-0.40;92.30
7494;DHT22;3788;49.902;8.590;2023-02-28T03:42:06;-0.40;92.40
7494;DHT22;3788;49.902;8.590;2023-02-28T03:44:38;-0.40;92.40
7494;DHT22;3788;49.902;8.590;2023-02-28T03:47:16;-0.40;92.50
7494;DHT22;3788;49.902;8.590;2023-02-28T03:49:47;-0.40;92.60
7494;DHT22;3788;49.902;8.590;2023-02-28T03:52:17;-0.40;92.60
7494;DHT22;3788;49.902;8.590;2023-02-28T03:54:48;-0.40;92.70
7494;DHT22;3788;49.902;8.590;2023-02-28T03:57:23;-0.40;92.70
7494;DHT22;3788;49.902;8.590;2023-02-28T03:59:56;-0.50;92.70
7494;DHT22;3788;49.902;8.590;2023-02-28T04:02:25;-0.50;92.70
7494;DHT22;3788;49.902;8.590;2023-02-28T04:04:52;-0.50;92.80
7494;DHT22;3788;49.902;8.590;2023-02-28T04:07:21;-0.50;92.80
7494;DHT22;3788;49.902;8.590;2023-02-28T04:09:47;-0.50;92.90
7494;DHT22;3788;49.902;8.590;2023-02-28T04:12:14;-0.50;93.00
7494;DHT22;3788;49.902;8.590;2023-02-28T04:14:41;-0.50;93.00
7494;DHT22;3788;49.902;8.590;2023-02-28T04:17:08;-0.50;93.00
7494;DHT22;3788;49.902;8.590;2023-02-28T04:19:35;-0.50;93.10
7494;DHT22;3788;49.902;8.590;2023-02-28T04:22:01;-0.50;93.00
7494;DHT22;3788;49.902;8.590;2023-02-28T04:24:29;-0.50;93.00
7494;DHT22;3788;49.902;8.590;2023-02-28T04:26:57;-0.50;93.00
7494;DHT22;3788;49.902;8.590;2023-02-28T04:29:26;-0.40;93.00
7494;DHT22;3788;49.902;8.590;2023-02-28T04:31:52;-0.40;92.90
7494;DHT22;3788;49.902;8.590;2023-02-28T04:34:20;-0.30;92.90
7494;DHT22;3788;49.902;8.590;2023-02-28T04:36:46;-0.30;93.00
7494;DHT22;3788;49.902;8.590;2023-02-28T04:39:14;-0.30;92.80
7494;DHT22;3788;49.902;8.590;2023-02-28T04:41:42;-0.30;92.70
7494;DHT22;3788;49.902;8.590;2023-02-28T04:44:09;-0.30;92.70
7494;DHT22;3788;49.902;8.590;2023-02-28T04:46:36;-0.30;92.70
7494;DHT22;3788;49.902;8.590;2023-02-28T04:49:03;-0.30;92.70
7494;DHT22;3788;49.902;8.590;2023-02-28T04:51:30;-0.20;92.70
7494;DHT22;3788;49.902;8.590;2023-02-28T04:53:57;-0.20;92.70
7494;DHT22;3788;49.902;8.590;2023-02-28T04:56:24;-0.20;92.80
7494;DHT22;3788;49.902;8.590;2023-02-28T04:58:52;-0.20;92.80
7494;DHT22;3788;49.902;8.590;2023-02-28T05:01:22;-0.20;92.80
7494;DHT22;3788;49.902;8.590;2023-02-28T05:03:50;-0.20;92.80
7494;DHT22;3788;49.902;8.590;2023-02-28T05:06:18;-0.30;92.80
7494;DHT22;3788;49.902;8.590;2023-02-28T05:08:46;-0.30;92.80
7494;DHT22;3788;49.902;8.590;2023-02-28T05:11:16;-0.30;92.80
7494;DHT22;3788;49.902;8.590;2023-02-28T05:13:44;-0.30;92.90
7494;DHT22;3788;49.902;8.590;2023-02-28T05:16:12;-0.30;92.80
7494;DHT22;3788;49.902;8.590;2023-02-28T05:18:39;-0.30;92.80
7494;DHT22;3788;49.902;8.590;2023-02-28T05:21:06;-0.30;92.80
7494;DHT22;3788;49.902;8.590;2023-02-28T05:23:33;-0.30;92.80
7494;DHT22;3788;49.902;8.590;2023-02-28T05:25:59;-0.30;92.80
7494;DHT22;3788;49.902;8.590;2023-02-28T05:28:26;-0.40;92.70
7494;DHT22;3788;49.902;8.590;2023-02-28T05:30:53;-0.40;92.70
7494;DHT22;3788;49.902;8.590;2023-02-28T05:33:21;-0.40;92.70
7494;DHT22;3788;49.902;8.590;2023-02-28T05:35:47;-0.40;92.70
7494;DHT22;3788;49.902;8.590;2023-02-28T05:38:14;-0.40;92.60
7494;DHT22;3788;49.902;8.590;2023-02-28T05:40:41;-0.40;92.90
7494;DHT22;3788;49.902;8.590;2023-02-28T05:43:10;-0.50;92.50
7494;DHT22;3788;49.902;8.590;2023-02-28T05:45:38;-0.50;92.50
7494;DHT22;3788;49.902;8.590;2023-02-28T05:48:05;-0.50;92.50
7494;DHT22;3788;49.902;8.590;2023-02-28T05:50:33;-0.50;92.50
7494;DHT22;3788;49.902;8.590;2023-02-28T05:52:59;-0.50;92.50
7494;DHT22;3788;49.902;8.590;2023-02-28T05:55:26;-0.50;92.50
7494;DHT22;3788;49.902;8.590;2023-02-28T05:57:53;-0.50;92.40
7494;DHT22;3788;49.902;8.590;2023-02-28T06:00:20;-0.50;92.40
7494;DHT22;3788;49.902;8.590;2023-02-28T06:02:47;-0.60;92.40
7494;DHT22;3788;49.902;8.590;2023-02-28T06:05:16;-0.50;92.40
7494;DHT22;3788;49.902;8.590;2023-02-28T06:07:45;-0.50;92.40
7494;DHT22;3788;49.902;8.590;2023-02-28T06:10:12;-0.60;92.40
7494;DHT22;3788;49.902;8.590;2023-02-28T06:12:39;-0.60;92.40
7494;DHT22;3788;49.902;8.590;2023-02-28T06:15:09;-0.60;92.40
7494;DHT22;3788;49.902;8.590;2023-02-28T06:17:37;-0.60;92.40
7494;DHT22;3788;49.902;8.590;2023-02-28T06:20:05;-0.60;92.40
7494;DHT22;3788;49.902;8.590;2023-02-28T06:22:32;-0.50;92.70
7494;DHT22;3788;49.902;8.590;2023-02-28T06:25:00;-0.50;92.70
7494;DHT22;3788;49.902;8.590;2023-02-28T06:27:27;-0.60;92.60
7494;DHT22;3788;49.902;8.590;2023-02-28T06:29:54;-0.60;92.60
7494;DHT22;3788;49.902;8.590;2023-02-28T06:32:21;-0.60;92.50
7494;DHT22;3788;49.902;8.590;2023-02-28T06:34:48;-0.60;92.50
7494;DHT22;3788;49.902;8.590;2023-02-28T06:37:15;-0.60;92.40
7494;DHT22;3788;49.902;8.590;2023-02-28T06:39:42;-0.60;92.30
7494;DHT22;3788;49.902;8.590;2023-02-28T06:42:10;-0.50;92.30
7494;DHT22;3788;49.902;8.590;2023-02-28T06:44:38;-0.50;92.20
7494;DHT22;3788;49.902;8.590;2023-02-28T06:47:06;-0.50;92.10
7494;DHT22;3788;49.902;8.590;2023-02-28T06:49:34;-0.50;92.10
7494;DHT22;3788;49.902;8.590;2023-02-28T06:52:02;-0.50;92.00
7494;DHT22;3788;49.902;8.590;2023-02-28T06:54:29;-0.40;92.00
7494;DHT22;3788;49.902;8.590;2023-02-28T06:56:57;-0.40;92.00
7494;DHT22;3788;49.902;8.590;2023-02-28T06:59:25;-0.20;92.20
7494;DHT22;3788;49.902;8.590;2023-02-28T07:01:52;0.20;92.10
7494;DHT22;3788;49.902;8.590;2023-02-28T07:04:20;0.70;91.80
7494;DHT22;3788;49.902;8.590;2023-02-28T07:06:47;1.00;91.10
7494;DHT22;3788;49.902;8.590;2023-02-28T07:09:14;1.40;90.50
7494;DHT22;3788;49.902;8.590;2023-02-28T07:11:41;1.40;89.50
7494;DHT22;3788;49.902;8.590;2023-02-28T07:14:08;1.40;89.40
7494;DHT22;3788;49.902;8.590;2023-02-28T07:16:37;1.50;89.00
7494;DHT22;3788;49.902;8.590;2023-02-28T07:19:03;1.90;88.80
7494;DHT22;3788;49.902;8.590;2023-02-28T07:21:31;2.40;88.10
7494;DHT22;3788;49.902;8.590;2023-02-28T07:23:57;2.90;86.80
7494;DHT22;3788;49.902;8.590;2023-02-28T07:26:24;3.10;82.20
7494;DHT22;3788;49.902;8.590;2023-02-28T07:28:51;3.30;81.40
7494;DHT22;3788;49.902;8.590;2023-02-28T07:31:18;3.50;80.70
7494;DHT22;3788;49.902;8.590;2023-02-28T07:33:46;3.50;78.80
7494;DHT22;3788;49.902;8.590;2023-02-28T07:36:15;3.60;78.30
7494;DHT22;3788;49.902;8.590;2023-02-28T07:38:44;3.70;78.10
7494;DHT22;3788;49.902;8.590;2023-02-28T07:41:12;3.90;78.10
7494;DHT22;3788;49.902;8.590;2023-02-28T07:43:39;4.10;76.70
7494;DHT22;3788;49.902;8.590;2023-02-28T07:46:08;4.40;76.20
7494;DHT22;3788;49.902;8.590;2023-02-28T07:48:34;4.60;75.60
7494;DHT22;3788;49.902;8.590;2023-02-28T07:51:03;4.90;74.70
7494;DHT22;3788;49.902;8.590;2023-02-28T07:53:30;4.90;72.90
7494;DHT22;3788;49.902;8.590;2023-02-28T07:55:58;4.80;72.80
7494;DHT22;3788;49.902;8.590;2023-02-28T07:58:26;4.70;71.30
7494;DHT22;3788;49.902;8.590;2023-02-28T08:00:53;4.40;72.00
7494;DHT22;3788;49.902;8.590;2023-02-28T08:03:21;4.30;72.40
7494;DHT22;3788;49.902;8.590;2023-02-28T08:05:48;4.00;72.20
7494;DHT22;3788;49.902;8.590;2023-02-28T08:08:17;3.90;71.60
7494;DHT22;3788;49.902;8.590;2023-02-28T08:10:43;3.80;71.80
7494;DHT22;3788;49.902;8.590;2023-02-28T08:13:10;3.80;71.60
7494;DHT22;3788;49.902;8.590;2023-02-28T08:15:37;4.00;72.40
7494;DHT22;3788;49.902;8.590;2023-02-28T08:18:04;4.10;71.00
7494;DHT22;3788;49.902;8.590;2023-02-28T08:20:31;4.20;69.90
7494;DHT22;3788;49.902;8.590;2023-02-28T08:22:59;4.40;69.50
7494;DHT22;3788;49.902;8.590;2023-02-28T08:25:27;4.60;68.80
7494;DHT22;3788;49.902;8.590;2023-02-28T08:27:53;4.80;67.60
7494;DHT22;3788;49.902;8.590;2023-02-28T08:30:20;5.00;67.10
7494;DHT22;3788;49.902;8.590;2023-02-28T08:32:47;5.50;67.20
7494;DHT22;3788;49.902;8.590;2023-02-28T08:35:14;5.90;65.10
7494;DHT22;3788;49.902;8.590;2023-02-28T08:37:40;6.20;63.70
7494;DHT22;3788;49.902;8.590;2023-02-28T08:40:09;6.00;62.70
7494;DHT22;3788;49.902;8.590;2023-02-28T08:42:37;6.30;62.50
7494;DHT22;3788;49.902;8.590;2023-02-28T08:45:05;6.30;62.00
7494;DHT22;3788;49.902;8.590;2023-02-28T08:47:32;6.40;61.00
7494;DHT22;3788;49.902;8.590;2023-02-28T08:49:59;6.40;60.70
7494;DHT22;3788;49.902;8.590;2023-02-28T08:52:25;6.70;61.00
7494;DHT22;3788;49.902;8.590;2023-02-28T08:54:52;6.90;60.60
7494;DHT22;3788;49.902;8.590;2023-02-28T08:57:19;7.20;60.00
7494;DHT22;3788;49.902;8.590;2023-02-28T08:59:47;7.60;59.00
7494;DHT22;3788;49.902;8.590;2023-02-28T09:02:14;7.50;57.60
7494;DHT22;3788;49.902;8.590;2023-02-28T09:04:41;7.40;58.20
7494;DHT22;3788;49.902;8.590;2023-02-28T09:07:10;7.30;57.60
7494;DHT22;3788;49.902;8.590;2023-02-28T09:09:37;7.00;57.40
7494;DHT22;3788;49.902;8.590;2023-02-28T09:12:19;6.90;57.80
7494;DHT22;3788;49.902;8.590;2023-02-28T09:14:47;6.80;58.00
7494;DHT22;3788;49.902;8.590;2023-02-28T09:17:13;6.90;58.10
7494;DHT22;3788;49.902;8.590;2023-02-28T09:19:40;6.90;57.70
7494;DHT22;3788;49.902;8.590;2023-02-28T09:22:07;6.80;57.50
7494;DHT22;3788;49.902;8.590;2023-02-28T09:24:35;6.80;58.50
7494;DHT22;3788;49.902;8.590;2023-02-28T09:27:02;6.90;58.00
7494;DHT22;3788;49.902;8.590;2023-02-28T09:29:29;7.20;57.50
7494;DHT22;3788;49.902;8.590;2023-02-28T09:31:58;7.10;57.40
7494;DHT22;3788;49.902;8.590;2023-02-28T09:34:25;7.30;57.40
7494;DHT22;3788;49.902;8.590;2023-02-28T09:36:51;7.60;56.40
7494;DHT22;3788;49.902;8.590;2023-02-28T09:39:20;7.80;55.00
7494;DHT22;3788;49.902;8.590;2023-02-28T09:41:50;7.80;54.70
7494;DHT22;3788;49.902;8.590;2023-02-28T09:44:22;7.70;54.20
7494;DHT22;3788;49.902;8.590;2023-02-28T09:46:56;7.40;54.00
7494;DHT22;3788;49.902;8.590;2023-02-28T09:49:35;7.30;54.50
7494;DHT22;3788;49.902;8.590;2023-02-28T09:52:04;7.10;54.50
7494;DHT22;3788;49.902;8.590;2023-02-28T09:54:35;7.30;55.10
7494;DHT22;3788;49.902;8.590;2023-02-28T09:57:07;7.30;54.20
7494;DHT22;3788;49.902;8.590;2023-02-28T10:00:03;7.00;53.80
7494;DHT22;3788;49.902;8.590;2023-02-28T10:03:00;6.90;54.70
7494;DHT22;3788;49.902;8.590;2023-02-28T10:05:35;6.80;54.40
7494;DHT22;3788;49.902;8.590;2023-02-28T10:08:10;6.70;54.60
7494;DHT22;3788;49.902;8.590;2023-02-28T10:10:40;6.50;54.20
7494;DHT22;3788;49.902;8.590;2023-02-28T10:13:15;6.50;54.80
7494;DHT22;3788;49.902;8.590;2023-02-28T10:15:45;6.60;55.10
7494;DHT22;3788;49.902;8.590;2023-02-28T10:18:16;6.80;54.20
7494;DHT22;3788;49.902;8.590;2023-02-28T10:20:48;6.80;54.40
7494;DHT22;3788;49.902;8.590;2023-02-28T10:23:20;6.80;54.60
7494;DHT22;3788;49.902;8.590;2023-02-28T10:25:52;6.70;54.20
7494;DHT22;3788;49.902;8.590;2023-02-28T10:28:20;6.50;54.60
7494;DHT22;3788;49.902;8.590;2023-02-28T10:30:48;6.50;55.00
7494;DHT22;3788;49.902;8.590;2023-02-28T10:33:19;6.60;54.80
7494;DHT22;3788;49.902;8.590;2023-02-28T10:35:48;6.60;54.80
7494;DHT22;3788;49.902;8.590;2023-02-28T10:38:17;6.80;54.60
7494;DHT22;3788;49.902;8.590;2023-02-28T10:40:45;7.00;54.30
7494;DHT22;3788;49.902;8.590;2023-02-28T10:43:23;7.30;54.00
7494;DHT22;3788;49.902;8.590;2023-02-28T10:46:03;7.40;53.50
7494;DHT22;3788;49.902;8.590;2023-02-28T10:48:34;7.40;51.60
7494;DHT22;3788;49.902;8.590;2023-02-28T10:51:05;7.20;51.70
7494;DHT22;3788;49.902;8.590;2023-02-28T10:53:38;6.90;52.20
7494;DHT22;3788;49.902;8.590;2023-02-28T10:56:15;6.60;52.10
7494;DHT22;3788;49.902;8.590;2023-02-28T10:58:48;6.50;52.80
7494;DHT22;3788;49.902;8.590;2023-02-28T11:01:17;6.50;53.00
7494;DHT22;3788;49.902;8.590;2023-02-28T11:03:44;6.60;53.60
7494;DHT22;3788;49.902;8.590;2023-02-28T11:06:17;6.70;52.60
7494;DHT22;3788;49.902;8.590;2023-02-28T11:08:51;6.60;52.60
7494;DHT22;3788;49.902;8.590;2023-02-28T11:11:20;6.70;52.90
7494;DHT22;3788;49.902;8.590;2023-02-28T11:13:51;6.90;52.60
7494;DHT22;3788;49.902;8.590;2023-02-28T11:16:20;6.90;52.60
7494;DHT22;3788;49.902;8.590;2023-02-28T11:18:49;6.90;52.20
7494;DHT22;3788;49.902;8.590;2023-02-28T11:21:22;6.90;53.10
7494;DHT22;3788;49.902;8.590;2023-02-28T11:24:00;7.00;52.80
7494;DHT22;3788;49.902;8.590;2023-02-28T11:26:42;7.10;52.50
7494;DHT22;3788;49.902;8.590;2023-02-28T11:29:15;7.00;52.30
7494;DHT22;3788;49.902;8.590;2023-02-28T11:32:01;6.90;52.40
7494;DHT22;3788;49.902;8.590;2023-02-28T11:34:29;6.90;52.30
7494;DHT22;3788;49.902;8.590;2023-02-28T11:36:59;6.70;51.50
7494;DHT22;3788;49.902;8.590;2023-02-28T11:39:30;6.70;52.20
7494;DHT22;3788;49.902;8.590;2023-02-28T11:42:18;6.70;53.00
7494;DHT22;3788;49.902;8.590;2023-02-28T11:45:01;6.50;52.90
7494;DHT22;3788;49.902;8.590;2023-02-28T11:47:33;6.20;53.30
7494;DHT22;3788;49.902;8.590;2023-02-28T11:50:25;6.20;53.60
7494;DHT22;3788;49.902;8.590;2023-02-28T11:52:56;6.20;53.20
7494;DHT22;3788;49.902;8.590;2023-02-28T11:55:26;6.20;53.50
7494;DHT22;3788;49.902;8.590;2023-02-28T11:58:05;6.20;53.60
7494;DHT22;3788;49.902;8.590;2023-02-28T12:00:50;6.40;53.70
7494;DHT22;3788;49.902;8.590;2023-02-28T12:03:27;6.50;53.20
7494;DHT22;3788;49.902;8.590;2023-02-28T12:06:01;6.50;52.50
7494;DHT22;3788;49.902;8.590;2023-02-28T12:08:44;6.20;52.80
7494;DHT22;3788;49.902;8.590;2023-02-28T12:11:19;6.10;53.20
7494;DHT22;3788;49.902;8.590;2023-02-28T12:14:02;6.00;53.10
7494;DHT22;3788;49.902;8.590;2023-02-28T12:16:42;5.90;53.40
7494;DHT22;3788;49.902;8.590;2023-02-28T12:19:19;5.90;53.60
7494;DHT22;3788;49.902;8.590;2023-02-28T12:22:10;5.90;53.20
7494;DHT22;3788;49.902;8.590;2023-02-28T12:24:49;5.90;53.10
7494;DHT22;3788;49.902;8.590;2023-02-28T12:27:25;6.00;53.50
7494;DHT22;3788;49.902;8.590;2023-02-28T12:29:56;6.00;53.40
7494;DHT22;3788;49.902;8.590;2023-02-28T12:32:27;6.10;53.70
7494;DHT22;3788;49.902;8.590;2023-02-28T12:35:00;6.20;53.90
7494;DHT22;3788;49.902;8.590;2023-02-28T12:37:31;6.20;53.70
7494;DHT22;3788;49.902;8.590;2023-02-28T12:40:11;6.30;54.00
7494;DHT22;3788;49.902;8.590;2023-02-28T12:42:41;6.30;53.70
7494;DHT22;3788;49.902;8.590;2023-02-28T12:45:12;6.30;53.40
7494;DHT22;3788;49.902;8.590;2023-02-28T12:47:42;6.30;53.50
7494;DHT22;3788;49.902;8.590;2023-02-28T12:50:11;6.30;53.30
7494;DHT22;3788;49.902;8.590;2023-02-28T12:52:43;6.20;53.90
7494;DHT22;3788;49.902;8.590;2023-02-28T12:55:19;6.30;54.10
7494;DHT22;3788;49.902;8.590;2023-02-28T12:57:53;6.30;54.20
7494;DHT22;3788;49.902;8.590;2023-02-28T13:00:30;6.40;54.10
7494;DHT22;3788;49.902;8.590;2023-02-28T13:06:09;6.40;53.50
7494;DHT22;3788;49.902;8.590;2023-02-28T13:09:02;6.40;53.40
7494;DHT22;3788;49.902;8.590;2023-02-28T13:11:34;6.40;53.60
7494;DHT22;3788;49.902;8.590;2023-02-28T13:14:14;6.40;53.60
7494;DHT22;3788;49.902;8.590;2023-02-28T13:17:09;6.40;53.70
7494;DHT22;3788;49.902;8.590;2023-02-28T13:19:38;6.40;53.20
7494;DHT22;3788;49.902;8.590;2023-02-28T13:22:10;6.40;53.40
7494;DHT22;3788;49.902;8.590;2023-02-28T13:24:45;6.40;53.50
7494;DHT22;3788;49.902;8.590;2023-02-28T13:27:36;6.50;53.60
7494;DHT22;3788;49.902;8.590;2023-02-28T13:33:23;6.20;53.40
7494;DHT22;3788;49.902;8.590;2023-02-28T13:36:07;6.30;53.70
7494;DHT22;3788;49.902;8.590;2023-02-28T13:38:37;6.30;53.60
7494;DHT22;3788;49.902;8.590;2023-02-28T13:41:43;6.30;53.70
7494;DHT22;3788;49.902;8.590;2023-02-28T13:44:13;6.40;53.60
7494;DHT22;3788;49.902;8.590;2023-02-28T13:49:43;6.30;52.90
7494;DHT22;3788;49.902;8.590;2023-02-28T13:52:14;6.20;53.50
7494;DHT22;3788;49.902;8.590;2023-02-28T13:57:50;6.30;53.60
7494;DHT22;3788;49.902;8.590;2023-02-28T14:00:31;6.40;53.60
7494;DHT22;3788;49.902;8.590;2023-02-28T14:03:25;6.40;53.80
7494;DHT22;3788;49.902;8.590;2023-02-28T14:06:15;6.40;53.00
7494;DHT22;3788;49.902;8.590;2023-02-28T14:08:54;6.40;54.10
7494;DHT22;3788;49.902;8.590;2023-02-28T14:11:31;6.40;53.70
7494;DHT22;3788;49.902;8.590;2023-02-28T14:13:59;6.50;53.80
7494;DHT22;3788;49.902;8.590;2023-02-28T14:16:36;6.60;53.70
7494;DHT22;3788;49.902;8.590;2023-02-28T14:19:11;6.60;53.40
7494;DHT22;3788;49.902;8.590;2023-02-28T14:21:40;6.60;53.60
7494;DHT22;3788;49.902;8.590;2023-02-28T14:24:34;6.50;53.40
7494;DHT22;3788;49.902;8.590;2023-02-28T14:27:20;6.50;53.30
7494;DHT22;3788;49.902;8.590;2023-02-28T14:30:20;6.40;53.50
7494;DHT22;3788;49.902;8.590;2023-02-28T14:33:05;6.40;53.90
7494;DHT22;3788;49.902;8.590;2023-02-28T14:36:03;6.40;54.20
7494;DHT22;3788;49.902;8.590;2023-02-28T14:38:33;6.40;53.80
7494;DHT22;3788;49.902;8.590;2023-02-28T14:41:04;6.40;53.60
7494;DHT22;3788;49.902;8.590;2023-02-28T14:43:33;6.30;53.60
7494;DHT22;3788;49.902;8.590;2023-02-28T14:46:01;6.30;53.60
7494;DHT22;3788;49.902;8.590;2023-02-28T14:48:30;6.30;53.60
7494;DHT22;3788;49.902;8.590;2023-02-28T14:50:58;6.30;53.70
7494;DHT22;3788;49.902;8.590;2023-02-28T14:53:28;6.30;53.80
7494;DHT22;3788;49.902;8.590;2023-02-28T14:55:55;6.30;53.70
7494;DHT22;3788;49.902;8.590;2023-02-28T14:58:26;6.30;53.80
7494;DHT22;3788;49.902;8.590;2023-02-28T15:00:55;6.30;53.90
7494;DHT22;3788;49.902;8.590;2023-02-28T15:03:24;6.30;54.00
7494;DHT22;3788;49.902;8.590;2023-02-28T15:05:54;6.30;54.00
7494;DHT22;3788;49.902;8.590;2023-02-28T15:08:21;6.40;54.10
7494;DHT22;3788;49.902;8.590;2023-02-28T15:10:53;6.40;54.50
7494;DHT22;3788;49.902;8.590;2023-02-28T15:13:20;6.40;54.10
7494;DHT22;3788;49.902;8.590;2023-02-28T15:15:51;6.50;54.20
7494;DHT22;3788;49.902;8.590;2023-02-28T15:18:26;6.50;54.30
7494;DHT22;3788;49.902;8.590;2023-02-28T15:20:56;6.50;54.40
7494;DHT22;3788;49.902;8.590;2023-02-28T15:23:25;6.50;54.70
7494;DHT22;3788;49.902;8.590;2023-02-28T15:25:53;6.50;54.80
7494;DHT22;3788;49.902;8.590;2023-02-28T15:28:22;6.50;54.50
7494;DHT22;3788;49.902;8.590;2023-02-28T15:30:57;6.50;54.50
7494;DHT22;3788;49.902;8.590;2023-02-28T15:33:27;6.50;54.40
7494;DHT22;3788;49.902;8.590;2023-02-28T15:36:10;6.40;54.40
7494;DHT22;3788;49.902;8.590;2023-02-28T15:38:38;6.40;54.50
7494;DHT22;3788;49.902;8.590;2023-02-28T15:41:05;6.30;54.60
7494;DHT22;3788;49.902;8.590;2023-02-28T15:43:35;6.40;54.80
7494;DHT22;3788;49.902;8.590;2023-02-28T15:46:04;6.40;54.90
7494;DHT22;3788;49.902;8.590;2023-02-28T15:48:34;6.30;54.50
7494;DHT22;3788;49.902;8.590;2023-02-28T15:51:07;6.30;54.80
7494;DHT22;3788;49.902;8.590;2023-02-28T15:53:39;6.30;54.70
7494;DHT22;3788;49.902;8.590;2023-02-28T15:56:24;6.30;55.00
7494;DHT22;3788;49.902;8.590;2023-02-28T15:58:53;6.30;55.10
7494;DHT22;3788;49.902;8.590;2023-02-28T16:01:25;6.40;55.20
7494;DHT22;3788;49.902;8.590;2023-02-28T16:03:54;6.30;55.00
7494;DHT22;3788;49.902;8.590;2023-02-28T16:06:35;6.30;55.00
7494;DHT22;3788;49.902;8.590;2023-02-28T16:09:03;6.30;55.20
7494;DHT22;3788;49.902;8.590;2023-02-28T16:11:33;6.30;55.20
7494;DHT22;3788;49.902;8.590;2023-02-28T16:14:01;6.20;55.30
7494;DHT22;3788;49.902;8.590;2023-02-28T16:16:28;6.20;55.30
7494;DHT22;3788;49.902;8.590;2023-02-28T16:18:57;6.20;55.40
7494;DHT22;3788;49.902;8.590;2023-02-28T16:21:33;6.10;55.50
7494;DHT22;3788;49.902;8.590;2023-02-28T16:24:00;6.10;55.90
7494;DHT22;3788;49.902;8.590;2023-02-28T16:26:27;6.10;56.20
7494;DHT22;3788;49.902;8.590;2023-02-28T16:28:55;6.00;56.40
7494;DHT22;3788;49.902;8.590;2023-02-28T16:31:21;6.00;56.20
7494;DHT22;3788;49.902;8.590;2023-02-28T16:33:48;5.90;56.30
7494;DHT22;3788;49.902;8.590;2023-02-28T16:36:17;5.90;56.40
7494;DHT22;3788;49.902;8.590;2023-02-28T16:38:46;5.80;56.60
7494;DHT22;3788;49.902;8.590;2023-02-28T16:41:14;5.80;56.60
7494;DHT22;3788;49.902;8.590;2023-02-28T16:43:45;5.70;56.70
7494;DHT22;3788;49.902;8.590;2023-02-28T16:46:13;5.70;56.90
7494;DHT22;3788;49.902;8.590;2023-02-28T16:48:42;5.60;57.10
7494;DHT22;3788;49.902;8.590;2023-02-28T16:51:12;5.60;57.20
7494;DHT22;3788;49.902;8.590;2023-02-28T16:53:39;5.60;57.50